Terminal Aerodrome Forecast
Issued by NWS Upton, NY

Home | Current Version | Previous Version | Text Only | Print | Product List | Glossary On
Versions: 1 2 3 4 5 6 7 8 9 10 11 12 13 14 15 16 17 18 19 20 21 22 23 24 25 26 27 28 29 30 31 32 33
459
FTUS41 KOKX 270836 AAB
TAFLGA
TAF AMD
KLGA 270836Z 2709/2806 VRB02KT 3/4SM -DZ BR OVC006
      TEMPO 2709/2711 1/2SM -DZ FG OVC004
     FM271300 VRB03KT 2SM -DZ BR BKN007 OVC015
     FM271500 13006KT P6SM BKN008 OVC015
     FM271700 14008KT P6SM SCT010 BKN025
     FM272200 14010KT P6SM SCT008 BKN015
     FM280000 14009KT 4SM BR BKN008 OVC015
     FM280200 14008KT 1 1/2SM -DZ BR OVC008
     FM280400 15008KT 1SM -DZ BR OVC006=

USA.gov is the U.S. government's official web portal to all federal, state and local government web resources and services.